Time;durP1;ratioP1;P1;durP2;ratioP2;P2;SDS_P1;SDS_P2;PMS_P1;PMS_P2;Temp;Humidity;BMP_temperature;BMP_pressure;BME280_temperature;BME280_humidity;BME280_pressure;Samples;Min_cycle;Max_cycle;Signal;HPM_P1;HPM_P2
2023/06/06 00:00:45;;;;;;;7.50;3.90;;;17.30;96.90;;;;;;5050509;28;20431;-75
2023/06/06 00:03:13;;;;;;;4.77;3.70;;;17.20;97.20;;;;;;5052938;28;20480;-74
2023/06/06 00:05:40;;;;;;;6.63;4.40;;;17.20;97.40;;;;;;5054748;28;20902;-74
2023/06/06 00:08:08;;;;;;;7.20;4.20;;;17.10;97.50;;;;;;5054439;28;20427;-74
2023/06/06 00:10:35;;;;;;;5.50;3.90;;;17.10;97.50;;;;;;5054401;28;20513;-75
2023/06/06 00:13:01;;;;;;;4.53;3.73;;;17.00;97.60;;;;;;5053900;28;20484;-75
2023/06/06 00:15:30;;;;;;;6.83;3.90;;;17.00;97.80;;;;;;5057653;28;22517;-75
2023/06/06 00:17:58;;;;;;;4.33;3.87;;;17.00;97.90;;;;;;5058597;28;20438;-75
2023/06/06 00:20:32;;;;;;;8.80;4.33;;;16.90;98.00;;;;;;5050991;28;20460;-74
2023/06/06 00:22:59;;;;;;;9.83;4.20;;;16.90;98.30;;;;;;5054505;28;20788;-75
2023/06/06 00:25:26;;;;;;;4.07;3.70;;;16.80;98.50;;;;;;5054093;28;20551;-75
2023/06/06 00:27:52;;;;;;;8.00;4.63;;;16.70;98.80;;;;;;5040649;28;20515;-75
2023/06/06 00:30:19;;;;;;;11.17;4.40;;;16.70;99.00;;;;;;5051981;28;20510;-75
2023/06/06 00:32:46;;;;;;;4.30;3.87;;;16.60;99.10;;;;;;5052227;28;20467;-75
2023/06/06 00:35:12;;;;;;;9.30;4.47;;;16.60;99.30;;;;;;5047095;28;20464;-75
2023/06/06 00:37:40;;;;;;;9.93;4.47;;;16.50;99.50;;;;;;5045428;28;20952;-75
2023/06/06 00:40:09;;;;;;;4.63;3.80;;;16.50;99.90;;;;;;5053307;28;20949;-75
2023/06/06 00:42:35;;;;;;;5.60;4.10;;;16.50;99.90;;;;;;5057668;28;20529;-74
2023/06/06 00:45:02;;;;;;;8.57;3.90;;;16.40;99.90;;;;;;5058768;28;20441;-75
2023/06/06 00:47:29;;;;;;;13.37;4.03;;;16.30;99.90;;;;;;5062132;28;20521;-76
2023/06/06 00:49:56;;;;;;;5.20;4.13;;;16.30;99.90;;;;;;5054217;28;20510;-76
2023/06/06 00:52:25;;;;;;;4.87;4.40;;;16.20;99.90;;;;;;5051187;28;20507;-76
2023/06/06 00:54:53;;;;;;;8.87;4.30;;;16.20;99.90;;;;;;5053301;28;20502;-75
2023/06/06 00:57:20;;;;;;;4.30;3.90;;;16.10;99.90;;;;;;5053553;28;21012;-75
2023/06/06 00:59:48;;;;;;;5.73;4.17;;;16.10;99.90;;;;;;5053345;28;20503;-75
2023/06/06 01:02:17;;;;;;;6.47;4.03;;;16.00;99.90;;;;;;5049141;28;21008;-75
2023/06/06 01:04:44;;;;;;;7.67;4.20;;;15.90;99.90;;;;;;5052937;28;20526;-75
2023/06/06 01:07:12;;;;;;;7.13;4.30;;;15.90;99.90;;;;;;5054047;28;20460;-75
2023/06/06 01:09:40;;;;;;;8.87;4.10;;;15.90;99.90;;;;;;5045816;28;20550;-75
2023/06/06 01:12:15;;;;;;;5.37;4.00;;;15.90;99.90;;;;;;5053490;28;20468;-75
2023/06/06 01:14:48;;;;;;;5.50;4.27;;;16.10;99.90;;;;;;5052883;28;20861;-75
2023/06/06 01:17:18;;;;;;;4.97;4.40;;;15.90;99.90;;;;;;5045758;28;20473;-75
2023/06/06 01:19:48;;;;;;;4.70;3.90;;;15.90;99.90;;;;;;5052593;28;20875;-75
2023/06/06 01:22:17;;;;;;;4.33;3.93;;;15.90;99.90;;;;;;5052959;28;20438;-75
2023/06/06 01:24:45;;;;;;;5.17;4.27;;;15.90;99.90;;;;;;5052710;28;20960;-75
2023/06/06 01:27:12;;;;;;;6.97;3.97;;;15.90;99.90;;;;;;5053004;28;20453;-75
2023/06/06 01:29:38;;;;;;;4.47;3.90;;;15.90;99.90;;;;;;5041451;28;20445;-75
2023/06/06 01:32:12;;;;;;;4.20;3.53;;;15.90;99.90;;;;;;5055922;28;20517;-75
2023/06/06 01:34:48;;;;;;;6.00;4.13;;;15.80;99.90;;;;;;5055463;28;20498;-75
2023/06/06 01:37:22;;;;;;;5.03;4.00;;;15.80;99.90;;;;;;5052695;28;20820;-75
2023/06/06 01:39:52;;;;;;;4.80;4.17;;;15.80;99.90;;;;;;5049869;28;20456;-75
2023/06/06 01:42:20;;;;;;;4.57;4.03;;;15.80;99.90;;;;;;5046674;28;20498;-75
2023/06/06 01:44:51;;;;;;;6.00;4.20;;;15.80;99.90;;;;;;5052684;28;20449;-75
2023/06/06 01:47:19;;;;;;;7.73;4.50;;;15.70;99.90;;;;;;5052697;28;20448;-75
2023/06/06 01:49:45;;;;;;;5.83;3.93;;;15.60;99.90;;;;;;5047426;28;20445;-75
2023/06/06 01:52:12;;;;;;;5.03;4.10;;;15.60;99.90;;;;;;5052341;28;20468;-75
2023/06/06 01:54:40;;;;;;;12.00;3.93;;;15.50;99.90;;;;;;5048789;28;20875;-75
2023/06/06 01:57:08;;;;;;;4.00;3.53;;;15.50;99.90;;;;;;5052827;28;20463;-74
2023/06/06 01:59:36;;;;;;;4.80;4.10;;;15.50;99.90;;;;;;5051754;28;20448;-75
2023/06/06 02:02:03;;;;;;;4.67;4.10;;;15.50;99.90;;;;;;5048674;28;20530;-75
2023/06/06 02:04:30;;;;;;;9.63;3.87;;;15.50;99.90;;;;;;5052019;28;20452;-75
2023/06/06 02:06:56;;;;;;;5.10;4.03;;;15.40;99.90;;;;;;5052576;28;20453;-75
2023/06/06 02:09:23;;;;;;;4.17;3.77;;;15.40;99.90;;;;;;5051845;28;20969;-75
2023/06/06 02:11:51;;;;;;;5.50;4.20;;;15.40;99.90;;;;;;5052387;28;20522;-75
2023/06/06 02:14:18;;;;;;;4.43;4.03;;;15.40;99.90;;;;;;5051670;28;20489;-75
2023/06/06 02:16:48;;;;;;;4.10;3.80;;;15.30;99.90;;;;;;5051287;28;20479;-75
2023/06/06 02:19:15;;;;;;;4.93;4.10;;;15.20;99.90;;;;;;5051247;28;20453;-75
2023/06/06 02:21:41;;;;;;;4.13;3.70;;;15.20;99.90;;;;;;5051926;28;20480;-75
2023/06/06 02:24:08;;;;;;;8.03;4.50;;;15.20;99.90;;;;;;5050841;28;20453;-75
2023/06/06 02:26:35;;;;;;;7.70;4.10;;;15.20;99.90;;;;;;5051624;28;21272;-75
2023/06/06 02:29:03;;;;;;;7.47;4.43;;;15.10;99.90;;;;;;5049924;28;21196;-75
2023/06/06 02:31:30;;;;;;;5.13;4.63;;;15.10;99.90;;;;;;5049518;28;20449;-75
2023/06/06 02:33:57;;;;;;;4.83;3.97;;;15.00;99.90;;;;;;5045915;28;20564;-75
2023/06/06 02:36:23;;;;;;;4.90;3.90;;;15.00;99.90;;;;;;5050319;28;20884;-75
2023/06/06 02:38:50;;;;;;;5.20;4.70;;;14.90;99.90;;;;;;5043228;28;21011;-75
2023/06/06 02:41:17;;;;;;;4.20;3.80;;;14.90;99.90;;;;;;5047239;28;20487;-75
2023/06/06 02:43:43;;;;;;;7.00;4.10;;;14.80;99.90;;;;;;5051576;28;20471;-75
2023/06/06 02:46:11;;;;;;;7.90;4.03;;;14.80;99.90;;;;;;5051379;28;20449;-75
2023/06/06 02:48:38;;;;;;;7.53;4.00;;;14.80;99.90;;;;;;5050981;28;20968;-75
2023/06/06 02:51:06;;;;;;;6.40;4.70;;;14.70;99.90;;;;;;5048940;28;20498;-75
2023/06/06 02:53:33;;;;;;;7.20;3.93;;;14.80;99.90;;;;;;5049937;28;20515;-75
2023/06/06 02:56:00;;;;;;;5.50;4.33;;;14.70;99.90;;;;;;5050078;28;21038;-75
2023/06/06 02:58:28;;;;;;;5.70;4.33;;;14.70;99.90;;;;;;5050952;28;20461;-75
2023/06/06 03:00:55;;;;;;;5.30;3.90;;;14.70;99.90;;;;;;5051111;28;20445;-75
2023/06/06 03:03:23;;;;;;;4.67;3.97;;;14.60;99.90;;;;;;5050598;28;20973;-75
2023/06/06 03:05:51;;;;;;;7.90;4.37;;;14.60;99.90;;;;;;5050403;28;20456;-75
2023/06/06 03:08:18;;;;;;;4.73;4.23;;;14.60;99.90;;;;;;5050862;28;20453;-75
2023/06/06 03:10:45;;;;;;;5.70;4.37;;;14.50;99.90;;;;;;5050988;28;20449;-75
2023/06/06 03:13:12;;;;;;;6.60;4.53;;;14.50;99.90;;;;;;5050776;28;20499;-75
2023/06/06 03:15:40;;;;;;;5.13;4.60;;;14.50;99.90;;;;;;5050764;28;20445;-75
2023/06/06 03:18:09;;;;;;;5.60;4.20;;;14.50;99.90;;;;;;5048009;28;20439;-75
2023/06/06 03:20:38;;;;;;;7.47;4.27;;;14.50;99.90;;;;;;5050062;28;20463;-75
2023/06/06 03:23:05;;;;;;;5.27;4.33;;;14.50;99.90;;;;;;5050701;28;20468;-75
2023/06/06 03:25:33;;;;;;;4.67;3.37;;;14.50;99.90;;;;;;5048876;28;20440;-72
2023/06/06 03:28:00;;;;;;;8.37;4.10;;;14.60;99.90;;;;;;5049648;28;20971;-71
2023/06/06 03:30:26;;;;;;;3.97;3.50;;;14.90;99.90;;;;;;5049796;28;20449;-72
2023/06/06 03:32:53;;;;;;;7.20;3.47;;;15.20;99.90;;;;;;5049515;28;20538;-72
2023/06/06 03:35:20;;;;;;;7.87;3.37;;;15.50;99.90;;;;;;5050167;28;20440;-72
2023/06/06 03:37:48;;;;;;;4.67;3.23;;;15.80;99.90;;;;;;5050201;28;21067;-72
2023/06/06 03:40:14;;;;;;;4.93;4.03;;;16.00;99.90;;;;;;5049989;28;20448;-75
2023/06/06 03:42:41;;;;;;;8.43;4.27;;;16.10;99.90;;;;;;5048306;28;21054;-78
2023/06/06 03:45:08;;;;;;;5.80;4.47;;;16.10;99.90;;;;;;5045656;28;20456;-78
2023/06/06 03:47:35;;;;;;;5.93;4.37;;;15.80;99.90;;;;;;5050289;28;20456;-78
2023/06/06 03:50:02;;;;;;;5.67;4.27;;;15.50;99.90;;;;;;5050318;28;20526;-78
2023/06/06 03:52:28;;;;;;;5.10;4.20;;;15.30;99.90;;;;;;5058396;28;20447;-78
2023/06/06 03:54:56;;;;;;;10.00;3.70;;;15.10;99.90;;;;;;5047028;28;20489;-77
2023/06/06 03:57:23;;;;;;;6.87;4.93;;;14.90;99.90;;;;;;5039804;28;20518;-78
2023/06/06 03:59:50;;;;;;;4.67;4.27;;;14.80;99.90;;;;;;5048068;28;20465;-77
2023/06/06 04:02:17;;;;;;;5.90;4.80;;;14.70;99.90;;;;;;5057214;28;20487;-77
2023/06/06 04:04:44;;;;;;;6.47;3.90;;;14.60;99.90;;;;;;5058350;28;20524;-78
2023/06/06 04:07:11;;;;;;;5.90;4.50;;;14.60;99.90;;;;;;5057102;28;20458;-77
2023/06/06 04:09:39;;;;;;;6.50;4.17;;;14.50;99.90;;;;;;5050492;28;20933;-77
2023/06/06 04:12:08;;;;;;;10.40;4.03;;;14.50;99.90;;;;;;5049660;28;20473;-77
2023/06/06 04:14:35;;;;;;;6.00;3.93;;;14.50;99.90;;;;;;5049925;28;20503;-77
2023/06/06 04:17:02;;;;;;;10.10;4.60;;;14.40;99.90;;;;;;5049709;28;20461;-78
2023/06/06 04:19:30;;;;;;;17.97;5.30;;;14.50;99.90;;;;;;5049118;28;20453;-78
2023/06/06 04:21:57;;;;;;;8.07;3.43;;;14.40;99.90;;;;;;5049850;28;20579;-77
2023/06/06 04:24:23;;;;;;;8.97;4.20;;;14.50;99.90;;;;;;5055521;28;20500;-77
2023/06/06 04:26:50;;;;;;;8.17;4.00;;;14.40;99.90;;;;;;5052113;28;20457;-77
2023/06/06 04:29:18;;;;;;;5.73;3.97;;;14.40;99.90;;;;;;5049213;28;20531;-77
2023/06/06 04:31:45;;;;;;;5.63;4.40;;;14.40;99.90;;;;;;5049195;28;20488;-77
2023/06/06 04:34:12;;;;;;;6.33;4.40;;;14.40;99.90;;;;;;5049603;28;20484;-76
2023/06/06 04:36:40;;;;;;;5.17;4.10;;;14.40;99.90;;;;;;5054987;28;20555;-77
2023/06/06 04:39:07;;;;;;;6.13;3.90;;;14.40;99.90;;;;;;5044331;28;20893;-76
2023/06/06 04:41:34;;;;;;;6.13;4.60;;;14.40;99.90;;;;;;5049666;28;20460;-77
2023/06/06 04:44:02;;;;;;;7.87;4.30;;;14.50;99.90;;;;;;5049631;28;20454;-77
2023/06/06 04:46:31;;;;;;;6.17;4.73;;;14.60;99.90;;;;;;5050785;28;20448;-77
2023/06/06 04:48:59;;;;;;;6.23;4.10;;;14.70;99.90;;;;;;5048691;28;20481;-76
2023/06/06 04:51:29;;;;;;;6.50;4.50;;;14.70;99.90;;;;;;5048486;28;20460;-77
2023/06/06 04:53:57;;;;;;;9.70;4.13;;;14.80;99.90;;;;;;5052747;28;20480;-77
2023/06/06 04:56:23;;;;;;;5.30;4.30;;;14.90;99.90;;;;;;5044909;28;20475;-77
2023/06/06 04:58:52;;;;;;;7.60;4.00;;;15.00;99.90;;;;;;5052775;28;21321;-77
2023/06/06 05:01:19;;;;;;;6.60;4.27;;;15.10;99.90;;;;;;5051228;28;20464;-77
2023/06/06 05:03:47;;;;;;;5.43;4.20;;;15.30;99.90;;;;;;5051360;28;20494;-76
2023/06/06 05:06:13;;;;;;;4.63;4.23;;;15.40;99.90;;;;;;5051359;28;20453;-77
2023/06/06 05:08:44;;;;;;;5.70;4.20;;;15.50;99.90;;;;;;5059254;28;20788;-77
2023/06/06 05:11:11;;;;;;;10.10;4.50;;;15.60;99.90;;;;;;5052277;28;20933;-77
2023/06/06 05:13:37;;;;;;;4.50;4.10;;;15.80;99.90;;;;;;5052430;28;20488;-77
2023/06/06 05:16:04;;;;;;;6.90;4.13;;;15.90;99.90;;;;;;5051138;28;20461;-77
2023/06/06 05:18:31;;;;;;;7.00;4.27;;;16.00;99.90;;;;;;5046951;28;21014;-77
2023/06/06 05:21:02;;;;;;;10.43;3.93;;;16.20;99.90;;;;;;5051852;28;20986;-77
2023/06/06 05:23:29;;;;;;;8.17;3.87;;;16.30;99.90;;;;;;5050378;28;20555;-76
2023/06/06 05:25:57;;;;;;;9.90;3.80;;;16.30;99.90;;;;;;5052013;28;20515;-76
2023/06/06 05:28:23;;;;;;;7.30;4.00;;;16.50;99.90;;;;;;5052654;28;20544;-76
2023/06/06 05:30:51;;;;;;;9.03;4.17;;;16.60;99.90;;;;;;5051714;28;20445;-75
2023/06/06 05:33:18;;;;;;;7.37;4.13;;;16.70;99.90;;;;;;5051536;28;20618;-75
2023/06/06 05:35:47;;;;;;;7.67;4.20;;;16.90;99.90;;;;;;5053475;28;20889;-75
2023/06/06 05:38:16;;;;;;;5.60;3.77;;;17.00;99.90;;;;;;5052382;28;20824;-75
2023/06/06 05:40:42;;;;;;;6.17;4.23;;;17.20;99.90;;;;;;5051913;28;20445;-75
2023/06/06 05:43:09;;;;;;;7.13;3.97;;;17.30;99.90;;;;;;5049530;28;20530;-75
2023/06/06 05:45:36;;;;;;;5.43;4.13;;;17.40;99.90;;;;;;5052114;28;20460;-76
2023/06/06 05:48:03;;;;;;;5.27;4.33;;;17.60;99.90;;;;;;5051666;28;20465;-76
2023/06/06 05:50:30;;;;;;;5.00;3.80;;;17.70;99.90;;;;;;5051865;28;20456;-76
2023/06/06 05:52:56;;;;;;;6.30;3.97;;;17.80;99.90;;;;;;5053186;28;20476;-75
2023/06/06 05:55:32;;;;;;;5.87;3.80;;;17.90;99.90;;;;;;5048714;28;20550;-75
2023/06/06 05:58:00;;;;;;;17.00;4.00;;;18.00;99.90;;;;;;5046040;28;20440;-75
2023/06/06 06:00:28;;;;;;;8.23;4.57;;;18.10;99.90;;;;;;5051499;28;20506;-76
2023/06/06 06:02:57;;;;;;;5.57;4.33;;;18.20;99.90;;;;;;5046257;28;20468;-76
2023/06/06 06:05:28;;;;;;;10.70;3.97;;;18.30;99.90;;;;;;5051927;28;20812;-75
2023/06/06 06:07:55;;;;;;;11.73;4.73;;;18.50;99.90;;;;;;5048195;28;20535;-75
2023/06/06 06:10:21;;;;;;;5.00;3.70;;;18.60;99.90;;;;;;5055575;28;20449;-75
2023/06/06 06:12:49;;;;;;;7.43;3.90;;;18.70;99.90;;;;;;5050302;28;20450;-75
2023/06/06 06:15:16;;;;;;;5.00;4.10;;;18.80;99.90;;;;;;5051851;28;20491;-75
2023/06/06 06:17:42;;;;;;;7.53;4.20;;;18.80;99.90;;;;;;5050376;28;20477;-75
2023/06/06 06:20:11;;;;;;;8.20;4.60;;;18.90;99.90;;;;;;5051246;28;20972;-75
2023/06/06 06:22:38;;;;;;;6.63;4.43;;;19.00;99.90;;;;;;5060384;28;20998;-75
2023/06/06 06:25:08;;;;;;;8.00;4.50;;;19.00;99.90;;;;;;5048765;28;20472;-75
2023/06/06 06:27:35;;;;;;;7.40;4.00;;;19.00;99.90;;;;;;5048745;28;20438;-75
2023/06/06 06:30:04;;;;;;;5.53;4.17;;;19.00;99.90;;;;;;5047999;28;20427;-75
2023/06/06 06:32:31;;;;;;;7.87;4.00;;;19.00;99.90;;;;;;5047263;28;20675;-75
2023/06/06 06:34:58;;;;;;;5.80;3.93;;;19.30;99.90;;;;;;5046809;28;20467;-75
2023/06/06 06:37:25;;;;;;;4.93;4.17;;;19.40;99.90;;;;;;5046240;28;20526;-75
2023/06/06 06:39:52;;;;;;;6.50;4.30;;;19.50;99.90;;;;;;5047240;28;20846;-75
2023/06/06 06:42:18;;;;;;;5.90;4.30;;;19.60;99.90;;;;;;5047113;28;21085;-75
2023/06/06 06:44:45;;;;;;;5.10;4.13;;;19.70;99.90;;;;;;5047521;28;20465;-73
2023/06/06 06:47:13;;;;;;;5.60;4.20;;;19.90;99.90;;;;;;5047812;28;20449;-75
2023/06/06 06:49:42;;;;;;;5.40;4.20;;;20.10;99.90;;;;;;5046674;28;20833;-74
2023/06/06 06:52:11;;;;;;;4.93;4.20;;;20.30;99.90;;;;;;5046962;28;21024;-74
2023/06/06 06:54:46;;;;;;;10.33;4.60;;;20.50;99.90;;;;;;5047308;28;20490;-74
2023/06/06 06:57:13;;;;;;;7.30;4.23;;;20.80;99.90;;;;;;5045523;28;20978;-75
2023/06/06 06:59:41;;;;;;;4.37;3.70;;;21.00;99.90;;;;;;5046960;28;20441;-75
2023/06/06 07:02:08;;;;;;;5.77;3.77;;;21.20;99.90;;;;;;5047102;28;20471;-74
2023/06/06 07:04:39;;;;;;;5.33;4.40;;;21.20;99.90;;;;;;5046054;28;20423;-74
2023/06/06 07:07:06;;;;;;;5.33;3.90;;;21.20;99.90;;;;;;5046397;28;21405;-75
2023/06/06 07:09:33;;;;;;;7.90;4.10;;;21.40;99.90;;;;;;5046561;28;20447;-74
2023/06/06 07:12:00;;;;;;;8.87;4.57;;;21.40;99.90;;;;;;5047012;28;20439;-75
2023/06/06 07:14:26;;;;;;;9.10;4.87;;;21.50;99.90;;;;;;5045627;28;21077;-74
2023/06/06 07:16:53;;;;;;;8.23;4.10;;;21.60;99.90;;;;;;5045608;28;20440;-75
2023/06/06 07:19:20;;;;;;;6.50;4.70;;;21.80;99.90;;;;;;5047233;28;20510;-74
2023/06/06 07:21:48;;;;;;;9.30;4.80;;;22.00;99.90;;;;;;5045364;28;20534;-74
2023/06/06 07:24:16;;;;;;;6.33;4.57;;;22.20;99.90;;;;;;5046653;28;21169;-75
2023/06/06 07:26:44;;;;;;;8.27;4.50;;;22.20;99.90;;;;;;5046771;28;20499;-73
2023/06/06 07:29:11;;;;;;;9.13;4.37;;;22.20;99.90;;;;;;5046901;28;20451;-74
2023/06/06 07:31:38;;;;;;;8.00;4.30;;;22.30;99.90;;;;;;5046257;28;20560;-74
2023/06/06 07:34:05;;;;;;;5.57;3.57;;;22.40;99.90;;;;;;5046635;28;20465;-73
2023/06/06 07:36:31;;;;;;;4.70;3.73;;;22.50;99.90;;;;;;5046616;28;20448;-74
2023/06/06 07:39:00;;;;;;;6.70;4.33;;;22.50;99.90;;;;;;5046221;28;21093;-73
2023/06/06 07:41:29;;;;;;;5.17;3.80;;;22.60;99.90;;;;;;5046291;28;20495;-73
2023/06/06 07:43:55;;;;;;;7.10;3.90;;;22.80;99.90;;;;;;5045720;28;20832;-73
2023/06/06 07:46:22;;;;;;;10.10;4.20;;;23.10;99.90;;;;;;5046684;28;20503;-73
2023/06/06 07:48:49;;;;;;;7.10;3.53;;;23.20;99.90;;;;;;5045707;28;20488;-74
2023/06/06 07:51:16;;;;;;;6.90;3.63;;;23.40;99.90;;;;;;5044383;28;20964;-75
2023/06/06 07:53:44;;;;;;;4.93;3.93;;;23.60;99.90;;;;;;5046291;28;20456;-74
2023/06/06 07:56:13;;;;;;;5.90;3.70;;;23.80;99.90;;;;;;5046686;28;21085;-75
2023/06/06 07:58:40;;;;;;;5.00;3.70;;;23.80;99.90;;;;;;5046233;28;20462;-74
2023/06/06 08:01:07;;;;;;;5.40;3.77;;;23.80;99.90;;;;;;5045877;28;20506;-75
2023/06/06 08:03:34;;;;;;;8.13;4.80;;;23.90;99.90;;;;;;5045788;28;20468;-74
2023/06/06 08:06:00;;;;;;;8.67;4.20;;;24.10;99.90;;;;;;5045991;28;20978;-75
2023/06/06 08:08:27;;;;;;;7.17;4.00;;;24.20;99.90;;;;;;5046036;28;20444;-74
2023/06/06 08:10:54;;;;;;;5.70;3.97;;;24.30;99.90;;;;;;5046375;28;20444;-74
2023/06/06 08:13:22;;;;;;;5.67;4.03;;;24.40;99.90;;;;;;5045615;28;20919;-74
2023/06/06 08:15:49;;;;;;;7.60;3.90;;;24.60;99.90;;;;;;5046253;28;20853;-74
2023/06/06 08:18:16;;;;;;;9.23;4.03;;;24.70;99.90;;;;;;5046169;28;20463;-74
2023/06/06 08:20:43;;;;;;;9.80;3.50;;;24.80;99.90;;;;;;5046174;28;20534;-75
2023/06/06 08:23:10;;;;;;;6.70;4.30;;;25.00;99.90;;;;;;5046235;28;20472;-75
2023/06/06 08:25:39;;;;;;;10.73;4.30;;;25.10;99.90;;;;;;5047661;28;20529;-75
2023/06/06 08:28:06;;;;;;;5.20;3.90;;;25.10;99.90;;;;;;5050458;28;20495;-75
2023/06/06 08:30:34;;;;;;;4.63;3.70;;;25.30;99.90;;;;;;5049278;28;20460;-75
2023/06/06 08:33:01;;;;;;;6.63;4.07;;;25.30;99.90;;;;;;5050030;28;20510;-74
2023/06/06 08:35:27;;;;;;;7.20;4.30;;;25.10;99.90;;;;;;5049586;28;20492;-74
2023/06/06 08:37:54;;;;;;;6.23;4.30;;;25.10;99.90;;;;;;5048920;28;20814;-75
2023/06/06 08:40:21;;;;;;;5.60;3.70;;;25.20;99.90;;;;;;5049410;28;20514;-75
2023/06/06 08:42:51;;;;;;;4.87;3.90;;;25.30;99.90;;;;;;5048446;28;20476;-74
2023/06/06 08:45:20;;;;;;;10.93;3.97;;;25.50;99.90;;;;;;5050034;28;20448;-73
2023/06/06 08:47:49;;;;;;;10.87;3.70;;;25.60;99.90;;;;;;5049482;28;20452;-73
2023/06/06 08:50:17;;;;;;;4.90;3.67;;;25.80;99.90;;;;;;5049580;28;20460;-76
2023/06/06 08:52:43;;;;;;;5.53;4.07;;;26.00;99.90;;;;;;5049239;28;20553;-76
2023/06/06 08:55:10;;;;;;;9.87;4.10;;;26.00;99.90;;;;;;5049601;28;20484;-76
2023/06/06 08:57:41;;;;;;;7.87;4.07;;;26.20;99.90;;;;;;5049059;28;20452;-76
2023/06/06 09:00:11;;;;;;;7.17;3.90;;;26.20;99.90;;;;;;5048164;28;21020;-75
2023/06/06 09:02:40;;;;;;;7.60;3.57;;;26.30;99.90;;;;;;5048676;28;20564;-76
2023/06/06 09:05:10;;;;;;;3.43;2.90;;;26.50;99.90;;;;;;5048953;28;20453;-71
2023/06/06 09:07:38;;;;;;;7.13;3.97;;;26.50;99.90;;;;;;5048160;28;20463;-72
2023/06/06 09:10:07;;;;;;;4.90;3.90;;;26.60;99.90;;;;;;5046729;28;20940;-73
2023/06/06 09:12:40;;;;;;;5.73;3.97;;;26.60;99.90;;;;;;5049251;28;20484;-71
2023/06/06 09:15:08;;;;;;;9.83;3.57;;;26.80;99.90;;;;;;5048660;28;20484;-71
2023/06/06 09:17:36;;;;;;;5.27;3.63;;;27.00;99.80;;;;;;5048835;28;20513;-72
2023/06/06 09:20:06;;;;;;;8.67;3.77;;;26.80;97.50;;;;;;5048101;28;20845;-72
2023/06/06 09:22:38;;;;;;;5.50;3.60;;;26.70;98.30;;;;;;5048386;28;20472;-72
2023/06/06 09:25:05;;;;;;;5.53;3.40;;;26.50;99.10;;;;;;5048543;28;20506;-73
2023/06/06 09:27:32;;;;;;;8.93;3.80;;;26.80;99.80;;;;;;5049294;28;20499;-72
2023/06/06 09:30:00;;;;;;;12.20;4.00;;;26.90;99.20;;;;;;5048894;28;20445;-72
2023/06/06 09:32:28;;;;;;;19.87;3.77;;;27.00;97.80;;;;;;5048828;28;20530;-72
2023/06/06 09:34:55;;;;;;;5.77;3.63;;;27.20;97.90;;;;;;5048628;28;20449;-72
2023/06/06 09:37:23;;;;;;;4.47;3.70;;;27.00;96.70;;;;;;5047725;28;20456;-72
2023/06/06 09:40:11;;;;;;;4.67;3.43;;;26.80;98.60;;;;;;5048236;28;20460;-72
2023/06/06 09:42:40;;;;;;;4.50;3.57;;;27.10;97.20;;;;;;5048184;28;20464;-72
2023/06/06 09:45:13;;;;;;;11.17;4.20;;;27.30;97.70;;;;;;5048532;28;20526;-72
2023/06/06 09:47:41;;;;;;;6.97;4.03;;;27.40;96.80;;;;;;5048142;28;20944;-72
2023/06/06 09:50:08;;;;;;;5.13;3.97;;;27.40;97.70;;;;;;5047224;28;20441;-72
2023/06/06 09:52:35;;;;;;;6.30;4.13;;;27.20;95.80;;;;;;5048539;28;20464;-72
2023/06/06 09:55:06;;;;;;;4.20;3.90;;;27.20;95.60;;;;;;5048513;28;20491;-72
2023/06/06 09:57:36;;;;;;;5.87;3.50;;;27.10;96.90;;;;;;5048635;28;20460;-72
2023/06/06 10:00:10;;;;;;;4.83;3.30;;;27.30;96.90;;;;;;5048074;28;20567;-72
2023/06/06 10:02:43;;;;;;;4.40;3.70;;;27.40;96.90;;;;;;5048388;28;20456;-72
2023/06/06 10:05:11;;;;;;;5.57;3.97;;;27.60;96.80;;;;;;5048080;28;20820;-72
2023/06/06 10:07:44;;;;;;;4.90;3.40;;;27.60;95.60;;;;;;5046678;28;20484;-72
2023/06/06 10:10:13;;;;;;;8.10;4.37;;;27.70;95.60;;;;;;5046622;28;20468;-71
2023/06/06 10:12:41;;;;;;;5.60;3.50;;;27.60;93.10;;;;;;5047618;28;20480;-72
2023/06/06 10:15:10;;;;;;;6.63;4.23;;;27.70;93.60;;;;;;5047429;28;20495;-72
2023/06/06 10:17:38;;;;;;;6.00;3.50;;;27.70;93.70;;;;;;5048487;28;20452;-71
2023/06/06 10:20:07;;;;;;;5.30;4.07;;;27.30;93.10;;;;;;5047157;28;20456;-72
2023/06/06 10:22:35;;;;;;;4.87;3.50;;;26.70;92.60;;;;;;5047340;28;20477;-74
2023/06/06 10:25:03;;;;;;;8.23;3.80;;;26.40;94.20;;;;;;5048046;28;20448;-75
2023/06/06 10:27:42;;;;;;;6.53;3.67;;;26.50;93.50;;;;;;5047990;28;20514;-74
2023/06/06 10:30:15;;;;;;;5.60;3.53;;;26.80;93.70;;;;;;5047528;28;20480;-75
2023/06/06 10:32:51;;;;;;;8.77;4.47;;;27.20;94.70;;;;;;5047722;28;20536;-75
2023/06/06 10:35:20;;;;;;;5.17;3.87;;;27.70;94.60;;;;;;5045481;28;20456;-75
2023/06/06 10:38:02;;;;;;;5.00;3.70;;;28.10;94.10;;;;;;5045082;28;21006;-75
2023/06/06 10:40:40;;;;;;;7.40;3.67;;;28.40;94.10;;;;;;5046710;28;20527;-75
2023/06/06 10:43:08;;;;;;;5.73;4.10;;;28.40;92.30;;;;;;5046670;28;20879;-76
2023/06/06 10:45:45;;;;;;;5.23;3.83;;;28.30;91.70;;;;;;5048047;28;20448;-75
2023/06/06 10:48:13;;;;;;;5.57;4.03;;;28.30;91.60;;;;;;5046869;28;20448;-75
2023/06/06 10:50:52;;;;;;;7.53;3.87;;;28.20;90.80;;;;;;5044552;28;20979;-75
2023/06/06 10:53:18;;;;;;;4.27;3.60;;;28.30;92.60;;;;;;5046201;28;21032;-75
2023/06/06 10:55:46;;;;;;;4.17;3.60;;;28.50;91.80;;;;;;5047329;28;20999;-75
2023/06/06 10:58:21;;;;;;;4.43;4.03;;;28.70;92.90;;;;;;5047285;28;20445;-75
2023/06/06 11:00:50;;;;;;;9.10;3.77;;;28.60;91.10;;;;;;5045343;28;20901;-75
2023/06/06 11:03:21;;;;;;;4.97;4.10;;;28.40;92.50;;;;;;5047253;28;20503;-75
2023/06/06 11:06:19;;;;;;;7.80;4.10;;;28.00;91.30;;;;;;5046468;28;20494;-75
2023/06/06 11:08:53;;;;;;;5.67;3.70;;;28.30;92.80;;;;;;5045380;28;20871;-75
2023/06/06 11:11:23;;;;;;;5.00;4.50;;;28.50;92.20;;;;;;5046404;28;20457;-76
2023/06/06 11:13:53;;;;;;;4.70;3.83;;;28.60;92.10;;;;;;5044630;28;20456;-76
2023/06/06 11:16:52;;;;;;;3.73;3.40;;;28.90;92.70;;;;;;5045662;28;20663;-76
2023/06/06 11:19:30;;;;;;;4.63;3.80;;;29.10;92.40;;;;;;5033350;28;20441;-75
2023/06/06 11:21:59;;;;;;;9.53;3.93;;;29.40;92.80;;;;;;5045997;28;20476;-74
2023/06/06 11:24:33;;;;;;;5.10;4.30;;;29.50;91.30;;;;;;5046851;28;20875;-75
2023/06/06 11:27:00;;;;;;;4.00;3.67;;;29.40;91.10;;;;;;5046879;28;20535;-75
2023/06/06 11:29:31;;;;;;;8.03;4.40;;;28.90;91.00;;;;;;5044389;28;20502;-75
2023/06/06 11:31:57;;;;;;;5.73;4.47;;;28.00;91.60;;;;;;5043504;28;20551;-75
2023/06/06 11:34:24;;;;;;;7.90;4.73;;;27.60;92.40;;;;;;5045586;28;20510;-76
2023/06/06 11:36:52;;;;;;;7.70;3.90;;;27.80;93.30;;;;;;5045343;28;20509;-75
2023/06/06 11:39:21;;;;;;;4.47;3.90;;;28.20;93.90;;;;;;5046253;28;20255;-74
2023/06/06 11:41:50;;;;;;;4.17;3.63;;;28.60;91.30;;;;;;5045946;28;20468;-74
2023/06/06 11:44:18;;;;;;;5.25;3.38;;;28.70;90.40;;;;;;5046325;28;20443;-75
2023/06/06 11:46:48;;;;;;;8.03;4.03;;;28.90;90.50;;;;;;5047006;28;20206;-76
2023/06/06 11:49:15;;;;;;;10.37;3.37;;;28.80;89.70;;;;;;5046725;28;20531;-74
2023/06/06 11:51:42;;;;;;;4.57;4.00;;;28.70;89.60;;;;;;5046049;28;20484;-73
2023/06/06 11:54:17;;;;;;;4.23;3.50;;;28.10;89.10;;;;;;5046657;28;20927;-73
2023/06/06 11:56:44;;;;;;;17.93;4.23;;;27.60;90.00;;;;;;5046881;28;20596;-70
2023/06/06 11:59:12;;;;;;;3.70;3.37;;;27.30;90.70;;;;;;5047044;28;20452;-70
2023/06/06 12:01:49;;;;;;;4.47;4.07;;;27.50;91.20;;;;;;5050513;28;20529;-71
2023/06/06 12:04:17;;;;;;;7.60;4.50;;;27.40;88.10;;;;;;5050615;28;20498;-70
2023/06/06 12:06:48;;;;;;;10.23;5.80;;;27.10;90.70;;;;;;5050347;28;20543;-71
2023/06/06 12:09:16;;;;;;;17.40;9.03;;;27.00;91.20;;;;;;5049277;28;20858;-71
2023/06/06 12:11:54;;;;;;;7.90;5.67;;;27.00;92.00;;;;;;5047768;28;20481;-70
2023/06/06 12:14:22;;;;;;;9.27;4.67;;;26.90;93.00;;;;;;5049334;28;20480;-70
2023/06/06 12:16:50;;;;;;;7.00;4.10;;;26.70;92.90;;;;;;5049300;28;20503;-71
2023/06/06 12:19:18;;;;;;;6.90;4.73;;;26.40;93.60;;;;;;5049942;28;20960;-70
2023/06/06 12:21:49;;;;;;;10.67;4.33;;;26.20;93.20;;;;;;5049063;28;20483;-69
2023/06/06 12:24:19;;;;;;;5.10;3.90;;;26.10;92.90;;;;;;5050081;28;20983;-70
2023/06/06 12:26:51;;;;;;;6.73;4.07;;;26.10;92.80;;;;;;5049202;28;20449;-70
2023/06/06 12:29:19;;;;;;;48.17;28.27;;;26.20;92.80;;;;;;5049906;28;20453;-70
2023/06/06 12:31:46;;;;;;;4.47;3.77;;;26.20;92.80;;;;;;5049785;28;21115;-71
2023/06/06 12:34:14;;;;;;;6.80;3.43;;;26.40;93.20;;;;;;5049413;28;20535;-72
2023/06/06 12:36:42;;;;;;;7.03;3.57;;;26.50;92.70;;;;;;5049871;28;20480;-71
2023/06/06 12:39:12;;;;;;;8.30;4.10;;;26.50;92.80;;;;;;5050011;28;20448;-71
2023/06/06 12:41:40;;;;;;;12.30;4.10;;;26.50;92.40;;;;;;5049613;28;20870;-72
2023/06/06 12:44:10;;;;;;;13.17;4.57;;;26.30;92.60;;;;;;5049356;28;20487;-72
2023/06/06 12:46:38;;;;;;;5.70;4.20;;;26.30;93.30;;;;;;5048538;28;20449;-71
2023/06/06 12:49:05;;;;;;;5.40;3.80;;;26.60;93.20;;;;;;5047799;28;20453;-72
2023/06/06 12:51:33;;;;;;;3.57;3.27;;;27.00;92.60;;;;;;5048771;28;20483;-71